sensor_id;sensor_type;location;lat;lon;timestamp;pressure;altitude;pressure_sealevel;temperature;humidity
72794;BME280;63436;26.334;50.194;2023-05-07T00:00:38;100819.81;;;27.62;31.47
72794;BME280;63436;26.334;50.194;2023-05-07T00:03:04;100802.66;;;27.31;31.35
72794;BME280;63436;26.334;50.194;2023-05-07T00:05:29;100810.66;;;27.52;31.63
72794;BME280;63436;26.334;50.194;2023-05-07T00:07:55;100807.80;;;27.59;30.77
72794;BME280;63436;26.334;50.194;2023-05-07T00:10:20;100812.95;;;27.59;30.41
72794;BME280;63436;26.334;50.194;2023-05-07T00:12:45;100769.05;;;27.18;30.14
72794;BME280;63436;26.334;50.194;2023-05-07T00:15:11;100819.87;;;27.44;29.78
72794;BME280;63436;26.334;50.194;2023-05-07T00:17:37;100804.58;;;27.46;30.05
72794;BME280;63436;26.334;50.194;2023-05-07T00:20:01;100783.52;;;27.00;30.77
72794;BME280;63436;26.334;50.194;2023-05-07T00:22:28;100813.17;;;27.45;31.10
72794;BME280;63436;26.334;50.194;2023-05-07T00:24:54;100781.41;;;26.65;30.78
72794;BME280;63436;26.334;50.194;2023-05-07T00:27:21;100789.76;;;26.52;30.99
72794;BME280;63436;26.334;50.194;2023-05-07T00:29:46;100807.75;;;27.76;30.09
72794;BME280;63436;26.334;50.194;2023-05-07T00:32:13;100792.49;;;27.26;30.99
72794;BME280;63436;26.334;50.194;2023-05-07T00:34:40;100807.96;;;27.16;30.38
72794;BME280;63436;26.334;50.194;2023-05-07T00:37:06;100820.00;;;27.46;30.91
72794;BME280;63436;26.334;50.194;2023-05-07T00:39:32;100805.55;;;26.53;31.63
72794;BME280;63436;26.334;50.194;2023-05-07T00:41:58;100810.93;;;27.04;31.35
72794;BME280;63436;26.334;50.194;2023-05-07T00:44:24;100811.84;;;26.73;31.29
72794;BME280;63436;26.334;50.194;2023-05-07T00:46:51;100818.24;;;26.64;31.50
72794;BME280;63436;26.334;50.194;2023-05-07T00:49:16;100812.16;;;27.00;31.24
72794;BME280;63436;26.334;50.194;2023-05-07T00:51:42;100813.74;;;26.63;31.59
72794;BME280;63436;26.334;50.194;2023-05-07T00:54:09;100813.48;;;26.91;31.59
72794;BME280;63436;26.334;50.194;2023-05-07T00:56:35;100812.43;;;26.84;31.77
72794;BME280;63436;26.334;50.194;2023-05-07T00:59:01;100848.78;;;27.73;30.78
72794;BME280;63436;26.334;50.194;2023-05-07T01:01:26;100855.90;;;27.44;31.35
72794;BME280;63436;26.334;50.194;2023-05-07T01:03:52;100797.55;;;26.67;31.05
72794;BME280;63436;26.334;50.194;2023-05-07T01:06:23;100845.08;;;26.71;31.45
72794;BME280;63436;26.334;50.194;2023-05-07T01:08:43;100849.42;;;27.00;31.06
72794;BME280;63436;26.334;50.194;2023-05-07T01:11:08;100863.12;;;27.11;31.41
72794;BME280;63436;26.334;50.194;2023-05-07T01:13:33;100859.23;;;27.38;30.69
72794;BME280;63436;26.334;50.194;2023-05-07T01:16:00;100882.53;;;28.04;30.45
72794;BME280;63436;26.334;50.194;2023-05-07T01:18:24;100863.70;;;27.45;31.62
72794;BME280;63436;26.334;50.194;2023-05-07T01:20:50;100877.21;;;27.19;31.28
72794;BME280;63436;26.334;50.194;2023-05-07T01:23:15;100854.68;;;26.95;30.95
72794;BME280;63436;26.334;50.194;2023-05-07T01:25:40;100878.79;;;26.89;30.71
72794;BME280;63436;26.334;50.194;2023-05-07T01:28:06;100874.08;;;26.97;30.61
72794;BME280;63436;26.334;50.194;2023-05-07T01:30:38;100881.60;;;26.89;30.33
72794;BME280;63436;26.334;50.194;2023-05-07T01:33:00;100844.04;;;26.27;30.09
72794;BME280;63436;26.334;50.194;2023-05-07T01:35:28;100881.35;;;26.69;29.67
72794;BME280;63436;26.334;50.194;2023-05-07T01:37:49;100793.14;;;25.96;29.57
72794;BME280;63436;26.334;50.194;2023-05-07T01:40:14;100786.38;;;25.93;29.76
72794;BME280;63436;26.334;50.194;2023-05-07T01:42:40;100873.70;;;26.80;29.12
72794;BME280;63436;26.334;50.194;2023-05-07T01:45:06;100877.03;;;26.95;28.52
72794;BME280;63436;26.334;50.194;2023-05-07T01:47:32;100877.41;;;26.89;28.33
72794;BME280;63436;26.334;50.194;2023-05-07T01:49:58;100889.26;;;26.83;28.59
72794;BME280;63436;26.334;50.194;2023-05-07T01:52:24;100886.83;;;26.70;28.77
72794;BME280;63436;26.334;50.194;2023-05-07T01:54:50;100879.13;;;27.05;28.79
72794;BME280;63436;26.334;50.194;2023-05-07T01:57:16;100879.54;;;27.03;28.56
72794;BME280;63436;26.334;50.194;2023-05-07T01:59:43;100881.54;;;26.85;28.76
72794;BME280;63436;26.334;50.194;2023-05-07T02:02:09;100883.74;;;27.31;28.73
72794;BME280;63436;26.334;50.194;2023-05-07T02:04:36;100881.30;;;26.55;29.29
72794;BME280;63436;26.334;50.194;2023-05-07T02:07:03;100881.86;;;26.95;29.26
72794;BME280;63436;26.334;50.194;2023-05-07T02:09:28;100882.22;;;26.56;29.68
72794;BME280;63436;26.334;50.194;2023-05-07T02:11:54;100883.71;;;26.71;29.50
72794;BME280;63436;26.334;50.194;2023-05-07T02:14:20;100891.49;;;26.78;29.48
72794;BME280;63436;26.334;50.194;2023-05-07T02:16:45;100890.28;;;26.40;29.46
72794;BME280;63436;26.334;50.194;2023-05-07T02:19:10;100895.95;;;26.81;29.08
72794;BME280;63436;26.334;50.194;2023-05-07T02:21:41;100898.71;;;27.05;28.47
72794;BME280;63436;26.334;50.194;2023-05-07T02:24:01;100902.34;;;27.54;28.08
72794;BME280;63436;26.334;50.194;2023-05-07T02:26:26;100905.87;;;26.85;28.62
72794;BME280;63436;26.334;50.194;2023-05-07T02:28:52;100907.43;;;26.77;29.29
72794;BME280;63436;26.334;50.194;2023-05-07T02:31:18;100904.19;;;27.03;28.68
72794;BME280;63436;26.334;50.194;2023-05-07T02:33:43;100909.20;;;26.90;29.73
72794;BME280;63436;26.334;50.194;2023-05-07T02:36:11;100913.26;;;26.74;29.79
72794;BME280;63436;26.334;50.194;2023-05-07T02:38:35;100923.90;;;27.24;28.53
72794;BME280;63436;26.334;50.194;2023-05-07T02:41:01;100924.14;;;27.07;29.20
72794;BME280;63436;26.334;50.194;2023-05-07T02:43:28;100932.34;;;26.95;29.75
72794;BME280;63436;26.334;50.194;2023-05-07T02:46:02;100932.92;;;26.87;30.08
72794;BME280;63436;26.334;50.194;2023-05-07T02:48:20;100934.25;;;27.22;29.88
72794;BME280;63436;26.334;50.194;2023-05-07T02:50:46;100937.96;;;27.28;30.42
72794;BME280;63436;26.334;50.194;2023-05-07T02:53:11;100942.48;;;27.12;30.46
72794;BME280;63436;26.334;50.194;2023-05-07T02:55:36;100945.20;;;27.85;29.78
72794;BME280;63436;26.334;50.194;2023-05-07T02:58:03;100946.64;;;27.29;30.46
72794;BME280;63436;26.334;50.194;2023-05-07T03:00:28;100948.76;;;27.10;31.02
72794;BME280;63436;26.334;50.194;2023-05-07T03:02:54;100945.70;;;27.33;31.24
72794;BME280;63436;26.334;50.194;2023-05-07T03:05:21;100948.64;;;27.74;30.44
72794;BME280;63436;26.334;50.194;2023-05-07T03:07:46;100950.94;;;27.58;31.26
72794;BME280;63436;26.334;50.194;2023-05-07T03:10:13;100951.42;;;27.65;31.25
72794;BME280;63436;26.334;50.194;2023-05-07T03:12:38;100959.45;;;27.52;31.55
72794;BME280;63436;26.334;50.194;2023-05-07T03:15:04;100948.53;;;28.02;30.82
72794;BME280;63436;26.334;50.194;2023-05-07T03:17:29;100954.93;;;27.47;30.81
72794;BME280;63436;26.334;50.194;2023-05-07T03:19:54;100962.63;;;27.63;31.87
72794;BME280;63436;26.334;50.194;2023-05-07T03:22:20;100958.19;;;27.84;31.79
72794;BME280;63436;26.334;50.194;2023-05-07T03:24:45;100906.67;;;26.93;32.25
72794;BME280;63436;26.334;50.194;2023-05-07T03:27:11;100904.10;;;26.69;31.07
72794;BME280;63436;26.334;50.194;2023-05-07T03:29:35;100953.53;;;28.14;30.59
72794;BME280;63436;26.334;50.194;2023-05-07T03:32:01;100935.07;;;27.78;30.39
72794;BME280;63436;26.334;50.194;2023-05-07T03:34:27;100977.47;;;28.30;29.49
72794;BME280;63436;26.334;50.194;2023-05-07T03:36:54;100943.53;;;28.25;29.54
72794;BME280;63436;26.334;50.194;2023-05-07T03:39:20;100940.33;;;27.64;29.70
72794;BME280;63436;26.334;50.194;2023-05-07T03:44:17;100945.95;;;28.45;24.49
72794;BME280;63436;26.334;50.194;2023-05-07T03:46:39;100980.71;;;28.77;24.21
72794;BME280;63436;26.334;50.194;2023-05-07T03:49:05;100973.60;;;28.57;24.12
72794;BME280;63436;26.334;50.194;2023-05-07T03:51:30;100954.66;;;28.32;24.39
72794;BME280;63436;26.334;50.194;2023-05-07T03:53:55;100930.05;;;28.34;24.06
72794;BME280;63436;26.334;50.194;2023-05-07T03:56:21;100995.74;;;28.36;24.95
72794;BME280;63436;26.334;50.194;2023-05-07T03:58:47;100995.18;;;29.03;24.49
72794;BME280;63436;26.334;50.194;2023-05-07T04:01:12;100976.40;;;29.05;24.54
72794;BME280;63436;26.334;50.194;2023-05-07T04:03:37;101002.98;;;29.65;24.27
72794;BME280;63436;26.334;50.194;2023-05-07T04:06:03;100930.64;;;28.88;24.41
72794;BME280;63436;26.334;50.194;2023-05-07T04:08:28;101012.86;;;29.06;25.40
72794;BME280;63436;26.334;50.194;2023-05-07T04:10:55;101015.24;;;29.52;25.27
72794;BME280;63436;26.334;50.194;2023-05-07T04:13:20;101020.64;;;28.76;26.50
72794;BME280;63436;26.334;50.194;2023-05-07T04:15:46;101016.46;;;29.37;27.58
72794;BME280;63436;26.334;50.194;2023-05-07T04:18:12;101018.76;;;30.13;27.71
72794;BME280;63436;26.334;50.194;2023-05-07T04:20:39;101028.74;;;29.53;28.47
72794;BME280;63436;26.334;50.194;2023-05-07T04:23:05;101027.94;;;29.66;26.48
72794;BME280;63436;26.334;50.194;2023-05-07T04:25:31;101028.59;;;29.88;25.86
72794;BME280;63436;26.334;50.194;2023-05-07T04:27:58;101032.44;;;30.17;24.37
72794;BME280;63436;26.334;50.194;2023-05-07T04:30:24;101037.54;;;29.86;24.96
72794;BME280;63436;26.334;50.194;2023-05-07T04:32:50;101038.37;;;29.89;25.50
72794;BME280;63436;26.334;50.194;2023-05-07T04:35:22;101035.73;;;29.90;25.35
72794;BME280;63436;26.334;50.194;2023-05-07T04:37:42;101034.31;;;30.12;26.03
72794;BME280;63436;26.334;50.194;2023-05-07T04:40:08;101033.86;;;30.38;26.54
72794;BME280;63436;26.334;50.194;2023-05-07T04:42:36;101038.91;;;31.34;26.34
72794;BME280;63436;26.334;50.194;2023-05-07T04:45:02;101039.61;;;30.64;23.33
72794;BME280;63436;26.334;50.194;2023-05-07T04:47:27;101035.86;;;30.70;24.05
72794;BME280;63436;26.334;50.194;2023-05-07T04:49:54;101041.13;;;29.00;23.56
72794;BME280;63436;26.334;50.194;2023-05-07T04:52:20;101036.96;;;30.62;20.80
72794;BME280;63436;26.334;50.194;2023-05-07T04:54:46;101038.47;;;29.82;22.13
72794;BME280;63436;26.334;50.194;2023-05-07T04:57:13;101037.45;;;31.19;21.13
72794;BME280;63436;26.334;50.194;2023-05-07T04:59:37;101037.83;;;30.98;21.89
72794;BME280;63436;26.334;50.194;2023-05-07T05:02:03;101040.57;;;30.07;22.78
72794;BME280;63436;26.334;50.194;2023-05-07T05:04:29;101040.86;;;31.18;21.19
72794;BME280;63436;26.334;50.194;2023-05-07T05:06:55;101041.82;;;30.29;21.84
72794;BME280;63436;26.334;50.194;2023-05-07T05:09:22;101041.13;;;31.91;19.49
72794;BME280;63436;26.334;50.194;2023-05-07T05:11:49;101039.35;;;31.69;19.50
72794;BME280;63436;26.334;50.194;2023-05-07T05:14:14;101039.47;;;31.34;19.40
72794;BME280;63436;26.334;50.194;2023-05-07T05:16:40;101041.26;;;31.32;19.03
72794;BME280;63436;26.334;50.194;2023-05-07T05:19:07;101040.61;;;30.01;19.28
72794;BME280;63436;26.334;50.194;2023-05-07T05:21:33;101047.07;;;28.11;19.97
72794;BME280;63436;26.334;50.194;2023-05-07T05:23:58;101047.89;;;29.44;19.82
72794;BME280;63436;26.334;50.194;2023-05-07T05:26:24;101047.99;;;30.80;18.68
72794;BME280;63436;26.334;50.194;2023-05-07T05:28:49;101054.90;;;31.60;16.98
72794;BME280;63436;26.334;50.194;2023-05-07T05:31:14;101051.72;;;29.55;16.05
72794;BME280;63436;26.334;50.194;2023-05-07T05:33:40;101055.78;;;29.30;15.94
72794;BME280;63436;26.334;50.194;2023-05-07T05:36:06;101053.35;;;28.85;15.20
72794;BME280;63436;26.334;50.194;2023-05-07T05:38:30;101054.51;;;29.19;14.95
72794;BME280;63436;26.334;50.194;2023-05-07T05:40:56;101050.95;;;30.74;13.87
72794;BME280;63436;26.334;50.194;2023-05-07T05:43:33;101059.08;;;30.34;13.40
72794;BME280;63436;26.334;50.194;2023-05-07T05:45:58;101054.66;;;30.77;13.27
72794;BME280;63436;26.334;50.194;2023-05-07T05:48:18;101045.82;;;31.60;12.02
72794;BME280;63436;26.334;50.194;2023-05-07T05:50:38;101040.55;;;31.12;12.95
72794;BME280;63436;26.334;50.194;2023-05-07T05:53:04;101040.04;;;31.16;10.97
72794;BME280;63436;26.334;50.194;2023-05-07T05:55:31;101043.28;;;30.10;12.68
72794;BME280;63436;26.334;50.194;2023-05-07T05:57:57;101037.96;;;30.82;12.44
72794;BME280;63436;26.334;50.194;2023-05-07T06:00:23;101036.39;;;29.92;13.67
72794;BME280;63436;26.334;50.194;2023-05-07T06:02:48;101035.69;;;31.73;13.38
72794;BME280;63436;26.334;50.194;2023-05-07T06:05:18;101035.72;;;31.57;13.87
72794;BME280;63436;26.334;50.194;2023-05-07T06:07:43;101039.71;;;30.84;15.19
72794;BME280;63436;26.334;50.194;2023-05-07T06:10:05;101036.11;;;30.96;13.83
72794;BME280;63436;26.334;50.194;2023-05-07T06:12:31;101030.27;;;31.25;12.97
72794;BME280;63436;26.334;50.194;2023-05-07T06:14:56;101034.47;;;29.51;13.20
72794;BME280;63436;26.334;50.194;2023-05-07T06:17:21;101040.87;;;29.48;13.84
72794;BME280;63436;26.334;50.194;2023-05-07T06:19:46;101045.54;;;30.05;14.69
72794;BME280;63436;26.334;50.194;2023-05-07T06:22:11;101053.82;;;29.62;17.25
72794;BME280;63436;26.334;50.194;2023-05-07T06:24:36;101019.10;;;29.14;16.60
72794;BME280;63436;26.334;50.194;2023-05-07T06:27:02;101052.16;;;30.13;17.49
72794;BME280;63436;26.334;50.194;2023-05-07T06:29:30;101035.10;;;29.93;15.80
72794;BME280;63436;26.334;50.194;2023-05-07T06:31:55;101033.93;;;29.66;17.44
72794;BME280;63436;26.334;50.194;2023-05-07T06:34:26;101041.84;;;29.39;16.12
72794;BME280;63436;26.334;50.194;2023-05-07T06:36:47;101040.36;;;29.50;15.36
72794;BME280;63436;26.334;50.194;2023-05-07T06:39:14;101037.05;;;28.97;16.17
72794;BME280;63436;26.334;50.194;2023-05-07T06:41:39;101049.11;;;29.59;17.88
72794;BME280;63436;26.334;50.194;2023-05-07T06:44:05;101032.96;;;29.00;17.08
72794;BME280;63436;26.334;50.194;2023-05-07T06:46:30;101027.34;;;29.96;16.44
72794;BME280;63436;26.334;50.194;2023-05-07T06:48:56;101027.16;;;29.58;17.53
72794;BME280;63436;26.334;50.194;2023-05-07T06:51:23;101027.28;;;30.18;16.15
72794;BME280;63436;26.334;50.194;2023-05-07T06:53:49;101036.31;;;30.34;15.60
72794;BME280;63436;26.334;50.194;2023-05-07T06:56:16;101025.91;;;29.15;16.31
72794;BME280;63436;26.334;50.194;2023-05-07T06:58:41;101029.36;;;29.51;16.68
72794;BME280;63436;26.334;50.194;2023-05-07T07:01:07;101032.37;;;29.52;16.48
72794;BME280;63436;26.334;50.194;2023-05-07T07:03:34;101034.52;;;29.32;17.62
72794;BME280;63436;26.334;50.194;2023-05-07T07:06:00;101044.92;;;30.02;16.72
72794;BME280;63436;26.334;50.194;2023-05-07T07:08:24;101042.42;;;30.58;17.21
72794;BME280;63436;26.334;50.194;2023-05-07T07:10:50;101046.68;;;29.92;18.09
72794;BME280;63436;26.334;50.194;2023-05-07T07:13:16;101042.55;;;30.57;17.77
72794;BME280;63436;26.334;50.194;2023-05-07T07:15:41;101045.02;;;30.21;17.63
72794;BME280;63436;26.334;50.194;2023-05-07T07:18:07;101044.50;;;31.64;16.87
72794;BME280;63436;26.334;50.194;2023-05-07T07:20:33;101048.12;;;31.34;16.95
72794;BME280;63436;26.334;50.194;2023-05-07T07:22:57;101043.23;;;31.21;18.40
72794;BME280;63436;26.334;50.194;2023-05-07T07:25:22;101045.98;;;30.10;18.82
72794;BME280;63436;26.334;50.194;2023-05-07T07:27:49;101038.41;;;30.99;17.66
72794;BME280;63436;26.334;50.194;2023-05-07T07:30:15;101036.17;;;30.84;15.68
72794;BME280;63436;26.334;50.194;2023-05-07T07:32:41;101036.65;;;31.27;15.66
72794;BME280;63436;26.334;50.194;2023-05-07T07:35:08;101032.16;;;31.89;15.60
72794;BME280;63436;26.334;50.194;2023-05-07T07:37:33;101033.04;;;31.05;16.89
72794;BME280;63436;26.334;50.194;2023-05-07T07:39:59;101027.10;;;30.92;17.36
72794;BME280;63436;26.334;50.194;2023-05-07T07:42:25;101025.88;;;30.48;18.99
72794;BME280;63436;26.334;50.194;2023-05-07T07:44:50;101028.04;;;31.21;18.48
72794;BME280;63436;26.334;50.194;2023-05-07T07:47:15;101033.15;;;31.65;17.57
72794;BME280;63436;26.334;50.194;2023-05-07T07:49:40;101022.89;;;32.19;15.55
72794;BME280;63436;26.334;50.194;2023-05-07T07:52:06;101020.25;;;31.95;14.31
72794;BME280;63436;26.334;50.194;2023-05-07T07:54:30;101023.70;;;30.71;15.65
72794;BME280;63436;26.334;50.194;2023-05-07T07:56:58;101020.05;;;32.52;15.64
72794;BME280;63436;26.334;50.194;2023-05-07T07:59:22;101016.68;;;31.43;15.32
72794;BME280;63436;26.334;50.194;2023-05-07T08:01:48;101011.11;;;32.53;14.31
72794;BME280;63436;26.334;50.194;2023-05-07T08:04:14;101011.12;;;30.79;16.04
72794;BME280;63436;26.334;50.194;2023-05-07T08:06:38;101008.24;;;32.62;13.58
72794;BME280;63436;26.334;50.194;2023-05-07T08:09:04;101015.19;;;31.70;14.92
72794;BME280;63436;26.334;50.194;2023-05-07T08:11:32;101006.29;;;32.19;14.67
72794;BME280;63436;26.334;50.194;2023-05-07T08:13:56;101000.80;;;30.52;16.50
72794;BME280;63436;26.334;50.194;2023-05-07T08:16:21;100992.98;;;31.24;16.26
72794;BME280;63436;26.334;50.194;2023-05-07T08:18:48;100992.12;;;31.69;14.98
72794;BME280;63436;26.334;50.194;2023-05-07T08:21:14;100995.68;;;31.92;13.90
72794;BME280;63436;26.334;50.194;2023-05-07T08:23:40;101000.43;;;31.55;14.05
72794;BME280;63436;26.334;50.194;2023-05-07T08:26:07;100997.18;;;32.97;13.64
72794;BME280;63436;26.334;50.194;2023-05-07T08:28:32;100994.03;;;32.96;13.14
72794;BME280;63436;26.334;50.194;2023-05-07T08:30:59;100996.79;;;31.30;13.61
72794;BME280;63436;26.334;50.194;2023-05-07T08:33:26;100994.42;;;30.82;16.16
72794;BME280;63436;26.334;50.194;2023-05-07T08:35:51;100998.21;;;30.64;17.80
72794;BME280;63436;26.334;50.194;2023-05-07T08:38:18;100998.43;;;31.74;18.56
72794;BME280;63436;26.334;50.194;2023-05-07T08:40:45;100997.43;;;31.37;18.96
72794;BME280;63436;26.334;50.194;2023-05-07T08:43:13;100996.47;;;31.56;18.54
72794;BME280;63436;26.334;50.194;2023-05-07T08:45:40;100998.06;;;31.81;18.38
72794;BME280;63436;26.334;50.194;2023-05-07T08:48:08;100992.94;;;31.58;17.61
72794;BME280;63436;26.334;50.194;2023-05-07T08:50:29;100985.70;;;31.96;18.46
72794;BME280;63436;26.334;50.194;2023-05-07T08:52:55;100992.25;;;31.87;18.46
72794;BME280;63436;26.334;50.194;2023-05-07T08:55:24;100989.18;;;30.80;18.26
72794;BME280;63436;26.334;50.194;2023-05-07T08:57:48;100992.49;;;31.26;19.80
72794;BME280;63436;26.334;50.194;2023-05-07T09:00:14;100997.12;;;32.09;18.34
72794;BME280;63436;26.334;50.194;2023-05-07T09:02:40;100994.59;;;31.58;16.91
72794;BME280;63436;26.334;50.194;2023-05-07T09:05:06;100991.38;;;31.31;17.26
72794;BME280;63436;26.334;50.194;2023-05-07T09:07:32;100989.40;;;31.44;19.67
72794;BME280;63436;26.334;50.194;2023-05-07T09:10:01;100987.05;;;30.99;19.89
72794;BME280;63436;26.334;50.194;2023-05-07T09:12:25;100984.51;;;32.47;20.10
72794;BME280;63436;26.334;50.194;2023-05-07T09:14:51;100977.62;;;31.61;19.13
72794;BME280;63436;26.334;50.194;2023-05-07T09:17:18;100979.21;;;32.37;19.33
72794;BME280;63436;26.334;50.194;2023-05-07T09:19:44;100978.14;;;32.33;19.18
72794;BME280;63436;26.334;50.194;2023-05-07T09:22:09;100977.39;;;31.99;20.37
72794;BME280;63436;26.334;50.194;2023-05-07T09:24:37;100973.05;;;30.90;20.34
72794;BME280;63436;26.334;50.194;2023-05-07T09:27:01;100973.67;;;31.95;19.06
72794;BME280;63436;26.334;50.194;2023-05-07T09:29:28;100971.15;;;32.01;18.84
72794;BME280;63436;26.334;50.194;2023-05-07T09:31:54;100963.80;;;30.70;20.24
72794;BME280;63436;26.334;50.194;2023-05-07T09:34:19;100960.81;;;31.63;19.62
72794;BME280;63436;26.334;50.194;2023-05-07T09:36:45;100956.91;;;32.55;18.56
72794;BME280;63436;26.334;50.194;2023-05-07T09:39:12;100951.20;;;31.91;21.65
72794;BME280;63436;26.334;50.194;2023-05-07T09:41:43;100947.52;;;31.67;24.03
72794;BME280;63436;26.334;50.194;2023-05-07T09:44:03;100944.08;;;31.08;24.26
72794;BME280;63436;26.334;50.194;2023-05-07T09:46:30;100944.10;;;31.68;24.35
72794;BME280;63436;26.334;50.194;2023-05-07T09:48:57;100941.56;;;32.45;23.86
72794;BME280;63436;26.334;50.194;2023-05-07T09:51:25;100939.56;;;29.55;26.42
72794;BME280;63436;26.334;50.194;2023-05-07T09:53:47;100943.79;;;29.95;26.47
72794;BME280;63436;26.334;50.194;2023-05-07T09:56:14;100938.44;;;30.08;26.10
72794;BME280;63436;26.334;50.194;2023-05-07T09:58:39;100936.52;;;30.57;26.93
72794;BME280;63436;26.334;50.194;2023-05-07T10:01:04;100940.91;;;31.40;26.67
72794;BME280;63436;26.334;50.194;2023-05-07T10:03:29;100930.03;;;29.84;27.50
72794;BME280;63436;26.334;50.194;2023-05-07T10:05:54;100936.21;;;29.13;29.42
72794;BME280;63436;26.334;50.194;2023-05-07T10:08:20;100931.52;;;31.02;27.55
72794;BME280;63436;26.334;50.194;2023-05-07T10:10:45;100926.18;;;30.14;28.58
72794;BME280;63436;26.334;50.194;2023-05-07T10:13:16;100925.02;;;30.79;27.66
72794;BME280;63436;26.334;50.194;2023-05-07T10:15:36;100933.58;;;30.37;28.75
72794;BME280;63436;26.334;50.194;2023-05-07T10:18:03;100926.24;;;29.94;28.53
72794;BME280;63436;26.334;50.194;2023-05-07T10:20:27;100921.73;;;29.27;29.24
72794;BME280;63436;26.334;50.194;2023-05-07T10:22:53;100921.24;;;30.84;27.69
72794;BME280;63436;26.334;50.194;2023-05-07T10:25:20;100920.22;;;30.84;26.77
72794;BME280;63436;26.334;50.194;2023-05-07T10:27:45;100924.56;;;31.36;25.42
72794;BME280;63436;26.334;50.194;2023-05-07T10:30:19;100915.65;;;31.72;25.75
72794;BME280;63436;26.334;50.194;2023-05-07T10:32:40;100919.91;;;32.75;24.63
72794;BME280;63436;26.334;50.194;2023-05-07T10:35:06;100908.85;;;32.29;24.71
72794;BME280;63436;26.334;50.194;2023-05-07T10:37:30;100908.87;;;33.07;23.39
72794;BME280;63436;26.334;50.194;2023-05-07T10:39:55;100898.77;;;33.70;21.94
72794;BME280;63436;26.334;50.194;2023-05-07T10:42:21;100899.13;;;31.95;22.06
72794;BME280;63436;26.334;50.194;2023-05-07T10:44:47;100886.97;;;31.22;22.40
72794;BME280;63436;26.334;50.194;2023-05-07T10:47:16;100887.37;;;31.50;17.04
72794;BME280;63436;26.334;50.194;2023-05-07T10:52:13;100886.20;;;32.24;18.05
72794;BME280;63436;26.334;50.194;2023-05-07T10:54:32;100879.94;;;31.89;18.11
72794;BME280;63436;26.334;50.194;2023-05-07T10:59:38;100874.03;;;32.44;17.68
72794;BME280;63436;26.334;50.194;2023-05-07T11:01:53;100872.76;;;31.59;18.86
72794;BME280;63436;26.334;50.194;2023-05-07T11:04:17;100861.98;;;31.52;19.13
72794;BME280;63436;26.334;50.194;2023-05-07T11:09:09;100864.65;;;30.31;17.79
72794;BME280;63436;26.334;50.194;2023-05-07T11:11:45;100871.53;;;31.16;17.48
72794;BME280;63436;26.334;50.194;2023-05-07T11:14:02;100870.12;;;31.92;17.39
72794;BME280;63436;26.334;50.194;2023-05-07T11:16:28;100861.26;;;31.60;17.80
72794;BME280;63436;26.334;50.194;2023-05-07T11:18:56;100855.06;;;31.71;17.71
72794;BME280;63436;26.334;50.194;2023-05-07T11:21:33;100855.42;;;31.95;17.80
72794;BME280;63436;26.334;50.194;2023-05-07T11:23:59;100859.32;;;31.12;18.79
72794;BME280;63436;26.334;50.194;2023-05-07T11:26:12;100853.75;;;31.40;19.01
72794;BME280;63436;26.334;50.194;2023-05-07T11:28:40;100862.40;;;30.69;19.09
72794;BME280;63436;26.334;50.194;2023-05-07T11:31:06;100854.85;;;31.28;18.64
72794;BME280;63436;26.334;50.194;2023-05-07T11:33:30;100861.49;;;31.60;18.53
72794;BME280;63436;26.334;50.194;2023-05-07T11:35:56;100850.36;;;30.90;18.88
72794;BME280;63436;26.334;50.194;2023-05-07T11:38:23;100858.19;;;31.48;18.46
72794;BME280;63436;26.334;50.194;2023-05-07T11:40:49;100850.42;;;30.97;17.70
72794;BME280;63436;26.334;50.194;2023-05-07T11:43:14;100851.65;;;31.49;17.82
72794;BME280;63436;26.334;50.194;2023-05-07T11:45:41;100855.40;;;31.05;19.28
72794;BME280;63436;26.334;50.194;2023-05-07T11:48:07;100841.01;;;31.27;18.67
72794;BME280;63436;26.334;50.194;2023-05-07T11:50:33;100849.07;;;30.90;20.38
72794;BME280;63436;26.334;50.194;2023-05-07T11:53:00;100837.51;;;30.52;20.87
72794;BME280;63436;26.334;50.194;2023-05-07T11:55:25;100830.77;;;30.33;19.44
72794;BME280;63436;26.334;50.194;2023-05-07T11:57:51;100832.75;;;30.56;19.67
72794;BME280;63436;26.334;50.194;2023-05-07T12:00:18;100834.65;;;31.16;19.21
72794;BME280;63436;26.334;50.194;2023-05-07T12:02:45;100822.47;;;31.29;18.98
72794;BME280;63436;26.334;50.194;2023-05-07T12:05:09;100828.42;;;31.30;19.50
72794;BME280;63436;26.334;50.194;2023-05-07T12:07:36;100825.12;;;31.23;19.41
72794;BME280;63436;26.334;50.194;2023-05-07T12:10:05;100813.13;;;30.99;19.56
72794;BME280;63436;26.334;50.194;2023-05-07T12:12:27;100821.44;;;31.03;18.56
72794;BME280;63436;26.334;50.194;2023-05-07T12:14:54;100811.61;;;31.71;17.88
72794;BME280;63436;26.334;50.194;2023-05-07T12:17:19;100814.21;;;32.39;16.93
72794;BME280;63436;26.334;50.194;2023-05-07T12:19:46;100803.66;;;30.72;17.55
72794;BME280;63436;26.334;50.194;2023-05-07T12:22:12;100799.50;;;30.88;17.22
72794;BME280;63436;26.334;50.194;2023-05-07T12:24:45;100797.18;;;31.56;17.07
72794;BME280;63436;26.334;50.194;2023-05-07T12:27:04;100805.01;;;30.91;17.93
72794;BME280;63436;26.334;50.194;2023-05-07T12:29:31;100792.53;;;31.69;17.11
72794;BME280;63436;26.334;50.194;2023-05-07T12:31:57;100795.58;;;31.62;17.43
72794;BME280;63436;26.334;50.194;2023-05-07T12:34:23;100787.91;;;31.61;17.50
72794;BME280;63436;26.334;50.194;2023-05-07T12:36:50;100796.17;;;32.06;16.83
72794;BME280;63436;26.334;50.194;2023-05-07T12:39:16;100780.85;;;31.14;17.18
72794;BME280;63436;26.334;50.194;2023-05-07T12:41:53;100782.80;;;31.86;16.94